Time;durP1;ratioP1;P1;durP2;ratioP2;P2;SDS_P1;SDS_P2;PMS_P1;PMS_P2;Temp;Humidity;BMP_temperature;BMP_pressure;BME280_temperature;BME280_humidity;BME280_pressure;Samples;Min_cycle;Max_cycle;Signal;HPM_P1;HPM_P2
2022/10/11 05:34:12;;;;;;;;;4.00;3.00;;;;;10.51;67.18;102179.06;5131513;27;50492;-74
2022/10/11 05:36:37;;;;;;;;;4.00;2.75;;;;;11.00;66.88;102228.44;5125967;27;49481;-78
2022/10/11 05:39:03;;;;;;;;;1.00;1.00;;;;;11.44;65.67;102286.41;5125839;27;49596;-71
2022/10/11 05:41:28;;;;;;;;;2.25;1.00;;;;;11.20;66.27;102247.72;5125466;27;49786;-74
2022/10/11 05:43:53;;;;;;;;;0.75;0.75;;;;;10.49;64.92;102091.47;5125403;27;49268;-72
2022/10/11 05:46:19;;;;;;;;;4.00;1.50;;;;;11.61;65.41;102281.88;5125544;27;49489;-72
2022/10/11 05:48:44;;;;;;;;;3.75;1.00;;;;;11.64;64.91;102292.50;5125467;27;49395;-74
2022/10/11 05:51:10;;;;;;;;;2.00;2.00;;;;;11.66;65.06;102290.81;5123992;27;49711;-74
2022/10/11 05:53:37;;;;;;;;;2.00;1.00;;;;;10.58;64.49;102100.63;5124225;27;49963;-73
2022/10/11 05:56:25;;;;;;;;;2.50;2.00;;;;;11.69;64.34;102303.22;5123453;27;49253;-79
2022/10/11 05:58:51;;;;;;;;;1.75;0.50;;;;;11.05;64.38;102180.53;5124835;27;49311;-73
2022/10/11 06:01:21;;;;;;;;;1.00;1.00;;;;;11.19;64.39;102196.84;5121572;27;49704;-73
2022/10/11 06:03:47;;;;;;;;;3.50;2.00;;;;;11.11;64.12;102174.63;5116913;27;49312;-72
2022/10/11 06:06:13;;;;;;;;;3.00;2.00;;;;;11.44;64.41;102238.19;5104583;27;49260;-75
2022/10/11 06:08:38;;;;;;;;;1.00;1.00;;;;;11.82;64.52;102294.13;5105977;27;49439;-73
2022/10/11 06:11:15;;;;;;;;;5.00;2.00;;;;;11.25;63.85;102197.09;5104772;27;59170;-70
2022/10/11 06:13:41;;;;;;;;;1.00;1.00;;;;;11.16;63.99;102184.47;5108605;27;49789;-74
2022/10/11 06:16:08;;;;;;;;;1.00;1.00;;;;;11.18;63.45;102185.44;5124788;27;49394;-73
2022/10/11 06:18:33;;;;;;;;;3.00;3.00;;;;;11.86;63.24;102298.66;5124019;27;49418;-73
2022/10/11 06:20:58;;;;;;;;;1.75;1.25;;;;;10.72;63.64;102106.47;5122884;27;50213;-73
2022/10/11 06:23:24;;;;;;;;;2.75;2.75;;;;;11.01;62.41;102170.72;5112348;27;49342;-74
2022/10/11 06:26:05;;;;;;;;;1.75;1.00;;;;;10.99;62.39;102163.59;5120019;27;49427;-73
2022/10/11 06:28:31;;;;;;;;;3.25;0.75;;;;;11.68;62.93;102291.81;5113102;27;49436;-73
2022/10/11 06:30:57;;;;;;;;;2.00;2.00;;;;;11.84;62.90;102313.50;5103270;27;50357;-74
2022/10/11 06:33:23;;;;;;;;;4.50;1.50;;;;;10.94;62.96;102157.28;5108197;27;49530;-73
2022/10/11 06:35:49;;;;;;;;;2.00;2.00;;;;;11.41;62.64;102246.88;5103819;27;49793;-73
2022/10/11 06:38:15;;;;;;;;;1.50;1.50;;;;;11.71;62.90;102301.53;5095497;27;49780;-74
2022/10/11 06:40:40;;;;;;;;;3.00;2.00;;;;;11.82;63.23;102323.97;5100799;27;50348;-73
2022/10/11 06:43:06;;;;;;;;;2.00;2.00;;;;;11.18;62.76;102216.97;5090491;27;49431;-72
2022/10/11 06:45:32;;;;;;;;;2.75;2.00;;;;;11.52;63.28;102272.69;5097494;27;49503;-74
2022/10/11 06:47:57;;;;;;;;;6.25;2.00;;;;;11.23;63.47;102222.44;5096697;27;49357;-75
2022/10/11 06:50:22;;;;;;;;;3.00;3.00;;;;;11.76;63.41;102316.66;5106616;27;50602;-72
2022/10/11 06:52:48;;;;;;;;;5.25;3.00;;;;;10.95;63.53;102180.97;5090369;27;49447;-72
2022/10/11 06:55:13;;;;;;;;;6.00;4.00;;;;;11.57;63.54;102285.19;5098673;27;49395;-73
2022/10/11 06:57:38;;;;;;;;;6.00;5.00;;;;;10.81;63.40;102142.72;5089736;27;49213;-72
2022/10/11 07:00:05;;;;;;;;;5.50;5.50;;;;;10.94;63.42;102181.81;5088450;27;49922;-73
2022/10/11 07:02:30;;;;;;;;;5.00;2.50;;;;;11.04;63.27;102197.13;5085509;27;49813;-72
2022/10/11 07:04:56;;;;;;;;;3.50;2.75;;;;;10.77;63.13;102141.69;5092699;27;49477;-73
2022/10/11 07:07:21;;;;;;;;;5.50;3.00;;;;;10.93;63.61;102180.03;5090081;27;49631;-75
2022/10/11 07:09:46;;;;;;;;;4.25;2.00;;;;;11.47;63.72;102269.88;5102198;27;49890;-74
2022/10/11 07:12:12;;;;;;;;;5.00;3.50;;;;;11.85;63.18;102337.22;5097026;27;49670;-75
2022/10/11 07:14:37;;;;;;;;;1.25;1.25;;;;;11.66;62.80;102303.06;5098920;27;49798;-74
2022/10/11 07:17:03;;;;;;;;;3.25;3.00;;;;;11.82;63.00;102338.84;5094950;27;49806;-75
2022/10/11 07:19:28;;;;;;;;;8.50;4.25;;;;;11.92;62.84;102348.91;5099175;27;50468;-75
2022/10/11 07:21:54;;;;;;;;;3.00;3.00;;;;;11.92;62.53;102352.44;5082601;27;49907;-73
2022/10/11 07:24:19;;;;;;;;;3.00;1.75;;;;;11.32;62.81;102259.63;5075090;27;49792;-73
2022/10/11 07:26:44;;;;;;;;;3.75;2.50;;;;;11.79;62.77;102326.44;5092581;27;49704;-74
2022/10/11 07:29:11;;;;;;;;;2.25;2.00;;;;;11.25;62.75;102248.78;5101156;27;49612;-73
2022/10/11 07:31:38;;;;;;;;;3.75;1.50;;;;;11.81;62.33;102339.69;5081399;27;49762;-73
2022/10/11 07:34:04;;;;;;;;;3.25;3.25;;;;;11.99;61.99;102362.38;5075925;27;49505;-73
2022/10/11 07:36:29;;;;;;;;;1.00;1.00;;;;;11.68;62.28;102312.84;5093517;27;49531;-74
2022/10/11 07:38:55;;;;;;;;;6.00;4.00;;;;;11.07;62.29;102210.38;5079283;27;50296;-74
2022/10/11 07:41:20;;;;;;;;;2.00;2.00;;;;;11.53;62.06;102290.28;5078534;27;49951;-74
2022/10/11 07:43:48;;;;;;;;;2.75;2.00;;;;;11.60;61.77;102297.59;5072006;27;49590;-74
2022/10/11 07:46:14;;;;;;;;;8.50;4.00;;;;;11.47;61.97;102275.13;5071277;27;49821;-74
2022/10/11 07:48:40;;;;;;;;;1.25;1.25;;;;;12.07;62.23;102373.22;5071779;27;50989;-74
2022/10/11 07:51:08;;;;;;;;;5.50;2.75;;;;;12.00;62.08;102364.19;5071964;27;50134;-73
2022/10/11 07:53:41;;;;;;;;;5.75;4.00;;;;;11.82;62.12;102334.47;5071631;27;49678;-74
2022/10/11 07:56:07;;;;;;;;;6.50;3.00;;;;;11.83;62.27;102331.00;5071812;27;49975;-74
2022/10/11 07:58:33;;;;;;;;;7.25;3.75;;;;;11.97;62.44;102350.00;5077467;27;49982;-74
2022/10/11 08:00:58;;;;;;;;;6.25;2.75;;;;;11.08;62.27;102200.75;5071623;27;49567;-74
2022/10/11 08:03:23;;;;;;;;;4.00;3.00;;;;;12.10;62.54;102375.09;5081497;27;49960;-73
2022/10/11 08:05:51;;;;;;;;;4.00;3.00;;;;;11.65;62.05;102296.03;5075743;27;49577;-74
2022/10/11 08:08:16;;;;;;;;;3.25;2.50;;;;;12.27;61.91;102403.88;5084042;27;49798;-74
2022/10/11 08:10:41;;;;;;;;;4.75;3.25;;;;;12.01;62.29;102354.53;5084240;27;49601;-74
2022/10/11 08:13:07;;;;;;;;;6.75;2.00;;;;;11.73;62.20;102310.41;5073582;27;49561;-74
2022/10/11 08:15:32;;;;;;;;;5.25;3.50;;;;;12.19;62.12;102380.72;5082067;27;49984;-74
2022/10/11 08:17:57;;;;;;;;;2.00;2.00;;;;;11.71;61.68;102288.41;5081715;27;49661;-74
2022/10/11 08:20:23;;;;;;;;;2.00;2.00;;;;;12.25;61.75;102370.41;5083570;27;49338;-72
2022/10/11 08:22:48;;;;;;;;;3.75;3.75;;;;;12.02;61.30;102328.28;5078546;27;49640;-77
2022/10/11 08:25:13;;;;;;;;;3.75;3.00;;;;;11.12;61.20;102179.94;5076895;27;50106;-76
2022/10/11 08:27:39;;;;;;;;;3.50;3.25;;;;;12.49;60.65;102394.19;5087095;27;51288;-70
2022/10/11 08:30:04;;;;;;;;;2.75;2.75;;;;;12.21;61.60;102352.69;5101383;27;49756;-73
2022/10/11 08:32:30;;;;;;;;;2.00;2.00;;;;;12.23;60.75;102361.56;5088001;27;49762;-72
2022/10/11 08:34:55;;;;;;;;;9.50;8.75;;;;;11.63;61.05;102248.63;5092180;27;49766;-71
2022/10/11 08:37:21;;;;;;;;;5.00;5.00;;;;;11.42;61.21;102208.31;5089485;27;50032;-72
2022/10/11 08:39:46;;;;;;;;;2.00;2.00;;;;;11.55;61.23;102231.63;5090346;27;50002;-72
2022/10/11 08:42:23;;;;;;;;;3.00;2.00;;;;;12.51;60.76;102413.56;5089928;27;49850;-73
2022/10/11 08:44:55;;;;;;;;;5.50;2.75;;;;;12.37;60.72;102397.25;5090852;27;50126;-72
2022/10/11 08:47:36;;;;;;;;;7.75;5.50;;;;;11.55;60.87;102246.50;5077534;27;50769;-72
2022/10/11 08:50:04;;;;;;;;;3.00;3.00;;;;;12.56;60.28;102418.19;5085493;27;49903;-71
2022/10/11 08:52:41;;;;;;;;;4.00;3.00;;;;;12.45;60.47;102389.63;5090552;27;49896;-71
2022/10/11 08:55:18;;;;;;;;;3.25;3.00;;;;;12.61;60.18;102413.09;5091141;27;50056;-70
2022/10/11 08:57:50;;;;;;;;;3.00;1.50;;;;;12.58;60.27;102407.72;5090443;27;50011;-70
2022/10/11 09:00:18;;;;;;;;;2.50;2.50;;;;;11.67;60.25;102250.53;5090604;27;49844;-73
2022/10/11 09:02:56;;;;;;;;;5.75;5.25;;;;;12.47;60.84;102398.50;5090696;27;49942;-71
2022/10/11 09:05:26;;;;;;;;;4.00;3.00;;;;;12.10;61.17;102333.84;5090664;27;49958;-72
2022/10/11 09:08:20;;;;;;;;;4.75;2.75;;;;;11.95;60.82;102305.19;5090222;27;49737;-71
2022/10/11 09:10:57;;;;;;;;;6.25;3.25;;;;;12.30;60.68;102332.91;5090193;27;49750;-72
2022/10/11 09:13:53;;;;;;;;;2.00;1.00;;;;;12.71;60.42;102415.25;5090216;27;49797;-71
2022/10/11 09:16:46;;;;;;;;;6.75;5.25;;;;;12.65;60.31;102387.78;5090632;27;49731;-72
2022/10/11 09:19:39;;;;;;;;;3.25;3.25;;;;;12.80;60.95;102414.69;5090339;27;49993;-71
2022/10/11 09:22:27;;;;;;;;;6.00;4.00;;;;;12.80;60.77;102410.31;5089099;27;49821;-71
2022/10/11 09:24:52;;;;;;;;;6.00;4.25;;;;;12.86;60.92;102410.56;5090042;27;49714;-71
2022/10/11 09:27:37;;;;;;;;;5.75;4.00;;;;;12.38;61.08;102317.41;5090397;27;49728;-71
2022/10/11 09:30:13;;;;;;;;;3.25;3.25;;;;;12.79;60.59;102389.19;5089877;27;50423;-72
2022/10/11 09:32:43;;;;;;;;;3.00;2.50;;;;;12.64;60.49;102335.91;5083297;27;49850;-71
2022/10/11 09:35:20;;;;;;;;;6.50;4.25;;;;;12.80;60.39;102362.00;5090510;27;49995;-71
2022/10/11 09:37:59;;;;;;;;;3.50;2.25;;;;;13.11;60.37;102401.81;5090623;27;50165;-72
2022/10/11 09:40:42;;;;;;;;;6.75;3.50;;;;;12.98;60.93;102365.31;5090279;27;49999;-72
2022/10/11 09:43:08;;;;;;;;;1.75;1.50;;;;;12.44;60.54;102249.13;5089838;27;49818;-71
2022/10/11 09:45:33;;;;;;;;;4.00;4.00;;;;;13.15;60.77;102368.56;5089683;27;49656;-72
2022/10/11 09:48:01;;;;;;;;;4.00;3.00;;;;;12.97;60.63;102325.72;5090575;27;50103;-72
2022/10/11 09:50:29;;;;;;;;;5.50;4.50;;;;;13.30;60.29;102368.22;5089854;27;50304;-71
2022/10/11 09:52:58;;;;;;;;;4.00;4.00;;;;;13.51;60.10;102399.72;5089909;27;49903;-72
2022/10/11 09:55:45;;;;;;;;;3.50;3.50;;;;;13.46;60.56;102389.94;5089910;27;49853;-72
2022/10/11 09:58:32;;;;;;;;;3.75;3.75;;;;;13.09;60.56;102305.06;5090085;27;49938;-71
2022/10/11 10:01:00;;;;;;;;;5.25;2.75;;;;;13.50;60.78;102361.00;5089498;27;50776;-73
2022/10/11 10:03:30;;;;;;;;;7.50;7.50;;;;;13.26;60.71;102310.94;5089376;27;49758;-71
2022/10/11 10:06:07;;;;;;;;;6.25;6.25;;;;;13.53;60.95;102342.66;5089625;27;49814;-72
2022/10/11 10:08:33;;;;;;;;;4.50;3.00;;;;;12.95;61.14;102228.13;5090336;27;49876;-72
2022/10/11 10:11:05;;;;;;;;;5.00;4.75;;;;;13.83;60.41;102385.91;5092972;27;50974;-71
2022/10/11 10:13:43;;;;;;;;;3.25;3.25;;;;;13.96;60.32;102395.13;5093052;27;49643;-71
2022/10/11 10:16:37;;;;;;;;;6.75;4.00;;;;;13.81;60.79;102373.50;5093156;27;49860;-71
2022/10/11 10:19:06;;;;;;;;;4.00;4.00;;;;;13.06;60.20;102229.38;5079293;27;49969;-73
2022/10/11 10:21:35;;;;;;;;;2.75;2.25;;;;;14.12;60.14;102389.50;5092640;27;49763;-75
2022/10/11 10:24:07;;;;;;;;;3.00;3.00;;;;;13.76;58.59;102325.81;5095259;27;49587;-74
2022/10/11 10:26:33;;;;;;;;;3.00;2.00;;;;;13.64;58.69;102299.03;5077142;27;49664;-71
2022/10/11 10:29:08;;;;;;;;;7.25;4.25;;;;;14.14;58.88;102365.78;5078173;27;49589;-79
2022/10/11 10:31:48;;;;;;;;;3.00;3.00;;;;;13.17;57.96;102187.56;5084708;27;50894;-77
2022/10/11 10:34:18;;;;;;;;;1.75;1.75;;;;;14.35;56.58;102376.09;5088467;27;49783;-77
2022/10/11 10:36:55;;;;;;;;;2.75;2.75;;;;;14.45;56.85;102378.22;5082837;27;49692;-77
2022/10/11 10:39:35;;;;;;;;;2.50;2.50;;;;;14.54;56.04;102373.22;5076958;27;49861;-75
2022/10/11 10:42:03;;;;;;;;;2.00;2.00;;;;;14.06;55.04;102274.84;5093586;27;49829;-74
2022/10/11 10:44:29;;;;;;;;;2.00;2.00;;;;;14.06;55.58;102278.38;5099927;27;49893;-75
2022/10/11 10:47:09;;;;;;;;;5.00;5.00;;;;;14.73;55.27;102380.84;5098982;27;49449;-74
2022/10/11 10:49:53;;;;;;;;;2.25;2.25;;;;;14.25;54.92;102295.69;5087069;27;49749;-75
2022/10/11 10:52:42;;;;;;;;;4.00;2.25;;;;;14.78;54.49;102354.56;5084620;27;49982;-74
2022/10/11 10:55:38;;;;;;;;;3.00;2.00;;;;;14.94;53.09;102380.56;5085395;27;49537;-74
2022/10/11 10:58:28;;;;;;;;;1.25;1.00;;;;;14.94;53.01;102374.38;5093807;27;49717;-74
2022/10/11 11:01:01;;;;;;;;;1.00;1.00;;;;;14.19;53.32;102240.94;5095523;27;49702;-75
2022/10/11 11:04:05;;;;;;;;;1.00;1.00;;;;;15.06;52.86;102365.06;5089860;27;50309;-74
2022/10/11 11:06:56;;;;;;;;;5.00;2.00;;;;;15.15;52.88;102364.38;5090987;27;49876;-74
2022/10/11 11:09:39;;;;;;;;;1.00;0.00;;;;;14.48;51.45;102240.94;5093084;27;49932;-72
2022/10/11 11:12:23;;;;;;;;;2.75;1.50;;;;;15.21;51.14;102375.16;5088581;27;50017;-72
2022/10/11 11:14:57;;;;;;;;;5.50;3.50;;;;;15.23;52.20;102368.16;5089590;27;50755;-71
2022/10/11 11:17:36;;;;;;;;;1.25;1.25;;;;;15.13;50.99;102337.00;5072461;27;49797;-72
2022/10/11 11:20:21;;;;;;;;;3.50;2.00;;;;;15.33;51.76;102367.53;5094982;27;49800;-73
2022/10/11 11:23:12;;;;;;;;;2.00;2.00;;;;;15.08;50.52;102310.44;5101293;27;49816;-73
2022/10/11 11:26:02;;;;;;;;;5.00;1.25;;;;;15.52;51.26;102357.44;5083642;27;50315;-71
2022/10/11 11:28:52;;;;;;;;;3.00;1.00;;;;;14.54;51.02;102182.94;5085722;27;49956;-72
2022/10/11 11:32:06;;;;;;;;;4.25;3.25;;;;;15.72;51.10;102350.94;5087536;27;49733;-72
2022/10/11 11:34:39;;;;;;;;;1.00;1.00;;;;;14.92;49.97;102188.34;5065904;27;49907;-72
2022/10/11 11:37:25;;;;;;;;;1.25;1.25;;;;;15.63;50.10;102318.94;5085299;27;50723;-75
2022/10/11 11:39:56;;;;;;;;;4.50;2.25;;;;;14.95;50.33;102197.25;5080463;27;49750;-74
2022/10/11 11:42:29;;;;;;;;;3.00;1.00;;;;;14.86;50.80;102176.78;5089389;27;50005;-75
2022/10/11 11:44:55;;;;;;;;;2.75;2.00;;;;;15.77;50.88;102330.78;5087446;27;49649;-76
2022/10/11 11:47:31;;;;;;;;;5.00;3.00;;;;;15.05;50.90;102193.09;5075916;27;50713;-76
2022/10/11 11:50:24;;;;;;;;;4.00;3.50;;;;;15.93;51.54;102309.09;5074563;27;49963;-76
2022/10/11 11:53:03;;;;;;;;;1.50;1.50;;;;;15.65;50.68;102266.94;5071540;27;49998;-75
2022/10/11 11:55:40;;;;;;;;;4.00;2.00;;;;;16.01;50.64;102317.22;5074717;27;49925;-76
2022/10/11 11:58:24;;;;;;;;;1.00;0.00;;;;;16.14;49.60;102326.34;5087587;27;49757;-76
2022/10/11 12:01:06;;;;;;;;;3.50;2.00;;;;;15.51;50.06;102218.03;5093381;27;49765;-75
2022/10/11 12:03:48;;;;;;;;;4.00;3.00;;;;;15.57;49.88;102232.31;5093965;27;50001;-74
2022/10/11 12:06:14;;;;;;;;;2.75;2.75;;;;;16.06;49.88;102294.38;5073199;27;49729;-77
2022/10/11 12:08:46;;;;;;;;;3.75;2.75;;;;;15.80;49.68;102245.22;5071692;27;50416;-76
2022/10/11 12:11:25;;;;;;;;;1.75;1.75;;;;;16.24;50.54;102316.00;5084340;27;49780;-76
2022/10/11 12:13:53;;;;;;;;;3.50;2.00;;;;;16.25;50.18;102307.19;5107057;27;49804;-75
2022/10/11 12:16:19;;;;;;;;;2.75;2.50;;;;;16.18;49.29;102299.06;5090792;27;49976;-76
2022/10/11 12:18:52;;;;;;;;;4.75;3.00;;;;;15.52;49.75;102188.94;5091072;27;50380;-75
2022/10/11 12:21:24;;;;;;;;;2.50;2.50;;;;;15.72;50.05;102229.13;5091265;27;49897;-75
2022/10/11 12:23:54;;;;;;;;;5.25;2.75;;;;;16.30;50.25;102305.50;5091717;27;49919;-75
2022/10/11 12:26:33;;;;;;;;;1.50;1.50;;;;;16.35;50.89;102294.13;5091568;27;49803;-76
2022/10/11 12:29:20;;;;;;;;;3.50;3.50;;;;;16.37;50.10;102300.34;5090954;27;50657;-76
2022/10/11 12:32:12;;;;;;;;;3.00;2.00;;;;;16.48;49.81;102290.88;5090062;27;49785;-75
2022/10/11 12:34:43;;;;;;;;;3.50;2.50;;;;;15.39;49.87;102113.69;5090537;27;49866;-75
2022/10/11 12:37:24;;;;;;;;;2.75;1.75;;;;;16.41;49.97;102263.34;5090926;27;49982;-81
2022/10/11 12:39:57;;;;;;;;;2.50;2.50;;;;;16.51;49.39;102283.00;5090182;27;51620;-76
2022/10/11 12:42:26;;;;;;;;;2.25;2.00;;;;;16.13;49.40;102222.13;5091225;27;49770;-76
2022/10/11 12:45:09;;;;;;;;;5.00;4.50;;;;;16.58;49.11;102280.47;5091176;27;50046;-76
2022/10/11 12:48:04;;;;;;;;;2.25;2.00;;;;;16.63;49.06;102280.59;5090240;27;49826;-77
2022/10/11 12:50:49;;;;;;;;;3.00;2.25;;;;;15.59;48.09;102100.88;5084069;27;49724;-77
2022/10/11 12:53:28;;;;;;;;;1.00;1.00;;;;;16.63;48.86;102277.03;5092431;27;50006;-77
2022/10/11 12:56:13;;;;;;;;;2.00;1.50;;;;;16.74;49.88;102284.38;5089648;27;49781;-77
2022/10/11 12:58:45;;;;;;;;;2.00;2.00;;;;;16.64;49.08;102234.66;5091472;27;49701;-76
2022/10/11 13:01:16;;;;;;;;;3.75;2.00;;;;;16.87;48.66;102272.22;5091470;27;49896;-77
2022/10/11 13:03:51;;;;;;;;;2.00;2.00;;;;;16.98;48.56;102272.44;5071208;27;49558;-77
2022/10/11 13:06:20;;;;;;;;;2.00;1.00;;;;;16.88;48.23;102248.38;5071509;27;49833;-76
2022/10/11 13:09:04;;;;;;;;;2.00;2.00;;;;;17.12;47.75;102265.63;5081139;27;49776;-77
2022/10/11 13:11:34;;;;;;;;;0.75;0.75;;;;;16.90;48.13;102234.28;5070915;27;50263;-79
2022/10/11 13:14:24;;;;;;;;;2.25;2.25;;;;;17.02;47.78;102259.25;5070955;27;49642;-77
2022/10/11 13:16:55;;;;;;;;;4.00;2.00;;;;;17.04;48.06;102265.47;5086414;27;49731;-76
2022/10/11 13:19:21;;;;;;;;;1.00;1.00;;;;;16.09;48.01;102084.28;5070945;27;49669;-76
2022/10/11 13:21:53;;;;;;;;;4.00;2.25;;;;;17.02;46.62;102240.69;5078954;27;50492;-76
2022/10/11 13:24:20;;;;;;;;;1.25;1.25;;;;;17.22;47.73;102264.03;5089733;27;49543;-79
2022/10/11 13:26:47;;;;;;;;;3.50;3.00;;;;;16.95;47.68;102203.41;5096520;27;49524;-75
2022/10/11 13:29:22;;;;;;;;;2.00;1.25;;;;;17.12;47.04;102229.38;5095943;27;49439;-78
2022/10/11 13:31:48;;;;;;;;;2.25;1.50;;;;;17.23;47.17;102234.88;5091122;27;50098;-77
2022/10/11 13:34:14;;;;;;;;;2.25;1.25;;;;;16.30;47.15;102076.72;5089455;27;49670;-83
2022/10/11 13:36:41;;;;;;;;;1.00;1.00;;;;;16.73;47.19;102154.41;5075140;27;49727;-81
2022/10/11 13:39:23;;;;;;;;;2.00;2.00;;;;;16.72;47.43;102150.88;5075956;27;49745;-78
2022/10/11 13:41:48;;;;;;;;;2.00;2.00;;;;;16.78;47.11;102150.06;5090471;27;49804;-81
2022/10/11 13:44:15;;;;;;;;;1.50;1.00;;;;;17.31;46.48;102222.63;5096659;27;49821;-75
2022/10/11 13:46:40;;;;;;;;;1.00;1.00;;;;;17.36;46.29;102234.19;5098853;27;49693;-80
2022/10/11 13:49:30;;;;;;;;;1.00;1.00;;;;;16.97;46.14;102169.84;5109420;27;49471;-75
2022/10/11 13:52:01;;;;;;;;;1.50;1.50;;;;;17.26;47.26;102207.47;5090532;27;49926;-77
2022/10/11 13:54:56;;;;;;;;;2.00;1.00;;;;;17.42;46.79;102217.47;5101868;27;49831;-71
2022/10/11 13:57:45;;;;;;;;;1.75;1.75;;;;;17.38;46.95;102213.88;5082936;27;49782;-73
2022/10/11 14:00:13;;;;;;;;;1.00;1.00;;;;;17.41;46.43;102224.53;5077503;27;49855;-74
2022/10/11 14:02:47;;;;;;;;;1.00;1.00;;;;;17.44;46.91;102216.63;5079144;27;50600;-75
2022/10/11 14:05:28;;;;;;;;;1.00;1.00;;;;;17.43;46.13;102208.63;5090515;27;49851;-74
2022/10/11 14:07:55;;;;;;;;;1.25;1.25;;;;;17.35;46.22;102187.28;5100664;27;49785;-74
2022/10/11 14:10:22;;;;;;;;;2.00;1.25;;;;;17.18;46.40;102154.28;5094438;27;49656;-77
2022/10/11 14:13:03;;;;;;;;;4.50;2.00;;;;;17.31;46.59;102179.25;5103664;27;50920;-80
2022/10/11 14:15:35;;;;;;;;;0.00;0.00;;;;;17.38;46.58;102179.38;5077151;27;49739;-79
2022/10/11 14:18:31;;;;;;;;;1.00;1.00;;;;;17.24;46.89;102141.09;5081416;27;49814;-78
2022/10/11 14:20:56;;;;;;;;;1.50;1.00;;;;;17.37;45.61;102174.94;5080957;27;50037;-75
2022/10/11 14:23:22;;;;;;;;;2.00;2.00;;;;;17.34;45.62;102160.72;5088157;27;66525;-72
2022/10/11 14:25:47;;;;;;;;;2.00;2.00;;;;;16.94;45.60;102106.13;5097561;27;61900;-73
2022/10/11 14:28:12;;;;;;;;;2.00;2.00;;;;;17.40;45.99;102174.97;5096629;27;49794;-73
2022/10/11 14:30:41;;;;;;;;;3.50;3.00;;;;;17.32;46.39;102159.81;5095945;27;49179;-74
2022/10/11 14:33:06;;;;;;;;;1.75;1.00;;;;;17.57;46.15;102188.50;5088666;27;50652;-73
2022/10/11 14:35:32;;;;;;;;;2.75;1.75;;;;;17.37;46.06;102158.09;5089344;27;49369;-74
2022/10/11 14:37:57;;;;;;;;;5.50;2.00;;;;;17.55;46.39;102197.31;5110761;27;51042;-75
2022/10/11 14:40:30;;;;;;;;;2.00;2.00;;;;;17.48;46.33;102185.72;5101284;27;49482;-74
2022/10/11 14:42:55;;;;;;;;;0.00;0.00;;;;;17.54;45.63;102195.53;5091496;27;50350;-74
2022/10/11 14:45:21;;;;;;;;;1.50;1.50;;;;;17.32;46.10;102165.13;5091449;27;49526;-75
2022/10/11 14:47:47;;;;;;;;;2.00;2.00;;;;;17.52;45.76;102189.31;5086617;27;49699;-74
2022/10/11 14:50:13;;;;;;;;;1.75;1.25;;;;;17.51;46.32;102190.19;5099860;27;49568;-74
2022/10/11 14:52:38;;;;;;;;;2.25;2.25;;;;;17.45;46.15;102181.22;5095533;27;51233;-75
2022/10/11 14:55:04;;;;;;;;;2.25;1.00;;;;;17.37;46.19;102168.72;5092660;27;49676;-74
2022/10/11 14:57:29;;;;;;;;;1.25;1.00;;;;;17.46;45.98;102187.44;5098739;27;49778;-72
2022/10/11 14:59:54;;;;;;;;;3.25;2.00;;;;;17.40;46.18;102188.25;5082346;27;49691;-71
2022/10/11 15:02:20;;;;;;;;;3.00;1.00;;;;;17.41;46.30;102189.16;5088154;27;50529;-70
2022/10/11 15:04:45;;;;;;;;;1.25;1.25;;;;;17.33;46.20;102177.50;5086215;27;49722;-68
2022/10/11 15:07:11;;;;;;;;;2.00;1.00;;;;;17.38;46.15;102187.34;5084720;27;49664;-72
2022/10/11 15:09:36;;;;;;;;;1.00;1.00;;;;;17.37;46.52;102188.22;5093457;27;49703;-73
2022/10/11 15:12:02;;;;;;;;;2.25;2.00;;;;;17.15;46.24;102149.81;5082502;27;70475;-75
2022/10/11 15:14:27;;;;;;;;;4.25;2.75;;;;;16.87;45.99;102111.34;5078837;27;50082;-77
2022/10/11 15:16:54;;;;;;;;;3.00;1.50;;;;;17.00;46.64;102116.84;5077144;27;49790;-74
2022/10/11 15:19:22;;;;;;;;;2.25;1.25;;;;;17.05;46.26;102134.63;5092478;27;49955;-73
2022/10/11 15:21:48;;;;;;;;;2.00;2.00;;;;;16.53;46.23;102030.31;5085840;27;50878;-77
2022/10/11 15:24:14;;;;;;;;;2.00;1.00;;;;;17.23;46.57;102163.22;5090507;27;49862;-76
2022/10/11 15:27:10;;;;;;;;;4.00;2.25;;;;;17.32;46.50;102189.00;5091120;27;50022;-82
2022/10/11 15:29:35;;;;;;;;;1.75;1.75;;;;;17.30;46.22;102188.97;5090838;27;49671;-81
2022/10/11 15:32:03;;;;;;;;;1.00;0.00;;;;;16.15;46.13;101995.22;5072982;27;49923;-83
2022/10/11 15:34:33;;;;;;;;;3.50;2.00;;;;;17.28;46.44;102179.22;5087813;27;49816;-81
2022/10/11 15:36:58;;;;;;;;;2.75;2.75;;;;;16.39;46.52;102018.56;5092357;27;50048;-77
2022/10/11 15:39:31;;;;;;;;;2.50;2.50;;;;;17.21;46.21;102169.38;5091282;27;49882;-76
2022/10/11 15:41:57;;;;;;;;;2.00;2.00;;;;;17.18;46.96;102162.25;5092517;27;50031;-76
2022/10/11 15:44:23;;;;;;;;;2.25;1.25;;;;;17.12;47.21;102148.88;5092308;27;49789;-76
2022/10/11 15:46:51;;;;;;;;;3.50;1.00;;;;;16.68;47.45;102082.72;5093117;27;49885;-88
2022/10/11 15:49:25;;;;;;;;;0.50;0.50;;;;;16.76;47.38;102102.31;5093523;27;49803;-85
2022/10/11 15:51:50;;;;;;;;;1.50;1.50;;;;;16.09;48.21;101983.59;5091864;27;61702;-77
2022/10/11 15:54:15;;;;;;;;;2.00;2.00;;;;;16.97;47.73;102132.69;5092925;27;50036;-74
2022/10/11 15:56:42;;;;;;;;;3.00;1.75;;;;;17.01;47.54;102151.38;5091892;27;51010;-73
2022/10/11 15:59:10;;;;;;;;;4.25;2.50;;;;;17.03;46.99;102156.69;5092363;27;49918;-73
2022/10/11 16:01:35;;;;;;;;;1.75;1.75;;;;;17.04;47.01;102162.00;5107485;27;51161;-75
2022/10/11 16:04:00;;;;;;;;;1.75;1.00;;;;;16.96;47.40;102152.13;5092102;27;50103;-74
2022/10/11 16:06:27;;;;;;;;;2.00;2.00;;;;;17.00;47.33;102156.66;5091154;27;50078;-74
2022/10/11 16:08:52;;;;;;;;;0.50;0.50;;;;;16.95;47.43;102159.22;5092122;27;49894;-74
2022/10/11 16:11:17;;;;;;;;;2.25;2.25;;;;;16.78;47.31;102129.75;5076864;27;50140;-75
2022/10/11 16:13:44;;;;;;;;;1.00;1.00;;;;;16.92;46.90;102161.81;5079869;27;49703;-74
2022/10/11 16:16:10;;;;;;;;;1.25;1.25;;;;;16.91;46.93;102164.44;5084527;27;49683;-75
2022/10/11 16:18:36;;;;;;;;;2.75;2.00;;;;;16.62;46.88;102118.84;5072393;27;50055;-73
2022/10/11 16:21:05;;;;;;;;;2.25;2.25;;;;;16.80;47.33;102162.50;5072083;27;50790;-73
2022/10/11 16:23:30;;;;;;;;;1.25;1.25;;;;;16.82;47.08;102170.50;5071845;27;49633;-74
2022/10/11 16:26:00;;;;;;;;;1.00;1.00;;;;;16.72;46.83;102152.63;5071344;27;61013;-73
2022/10/11 16:28:26;;;;;;;;;1.50;1.50;;;;;16.75;47.12;102166.81;5085710;27;50243;-73
2022/10/11 16:30:51;;;;;;;;;1.00;1.00;;;;;16.75;47.35;102164.16;5091368;27;51214;-74
2022/10/11 16:33:20;;;;;;;;;1.50;1.25;;;;;16.60;47.57;102145.31;5091155;27;49777;-75
2022/10/11 16:35:45;;;;;;;;;2.25;2.25;;;;;16.67;47.12;102173.72;5091620;27;49672;-74
2022/10/11 16:38:11;;;;;;;;;2.50;2.50;;;;;16.66;47.71;102166.63;5072246;27;49685;-74
2022/10/11 16:40:38;;;;;;;;;1.00;1.00;;;;;16.62;47.97;102171.84;5071660;27;50943;-73
2022/10/11 16:43:04;;;;;;;;;1.00;1.00;;;;;16.24;47.77;102108.41;5071910;27;49869;-74
2022/10/11 16:45:31;;;;;;;;;2.50;2.50;;;;;16.40;48.34;102144.94;5086059;27;49728;-74
2022/10/11 16:47:56;;;;;;;;;2.00;2.00;;;;;16.49;48.37;102166.31;5071787;27;49878;-74
2022/10/11 16:50:21;;;;;;;;;3.50;2.50;;;;;16.47;48.82;102165.38;5085199;27;51271;-74
2022/10/11 16:52:47;;;;;;;;;3.75;2.00;;;;;16.31;48.22;102150.09;5071697;27;49790;-74
2022/10/11 16:55:12;;;;;;;;;3.25;3.25;;;;;16.38;48.25;102169.63;5071598;27;49790;-73
2022/10/11 16:57:37;;;;;;;;;3.00;1.50;;;;;16.14;48.29;102132.94;5071835;27;49712;-73
2022/10/11 17:00:08;;;;;;;;;2.50;1.50;;;;;16.14;48.55;102146.19;5071400;27;51270;-74
2022/10/11 17:02:34;;;;;;;;;3.00;2.00;;;;;16.18;48.89;102163.94;5071398;27;49731;-74
2022/10/11 17:04:59;;;;;;;;;2.00;1.50;;;;;16.06;49.25;102153.09;5077018;27;49857;-74
2022/10/11 17:07:25;;;;;;;;;3.25;3.00;;;;;16.10;49.25;102168.19;5072359;27;50307;-73
2022/10/11 17:09:50;;;;;;;;;2.00;1.25;;;;;16.10;49.37;102176.13;5071130;27;49839;-72
2022/10/11 17:12:19;;;;;;;;;1.75;1.75;;;;;15.91;49.32;102162.50;5071299;27;49894;-73
2022/10/11 17:14:45;;;;;;;;;2.00;2.00;;;;;15.98;49.60;102187.34;5071591;27;49711;-72
2022/10/11 17:17:11;;;;;;;;;3.50;3.50;;;;;15.93;49.73;102174.03;5071442;27;49654;-71